createdAt,value
2023-04-16T00:02:41.307Z,18.63
2023-04-16T00:05:42.923Z,17.88
2023-04-16T00:08:44.348Z,17.98
2023-04-16T00:11:45.741Z,18.15
2023-04-16T00:14:47.485Z,18.45
2023-04-16T00:17:48.966Z,20.05
2023-04-16T00:20:50.587Z,18.33
2023-04-16T00:23:51.967Z,18.95
2023-04-16T00:26:53.439Z,20.52
2023-04-16T00:29:54.833Z,20.05
2023-04-16T00:32:56.505Z,19.42
2023-04-16T00:35:57.970Z,19.45
2023-04-16T00:38:59.418Z,19.90
2023-04-16T00:42:00.833Z,20.65
2023-04-16T00:45:02.355Z,19.60
2023-04-16T00:48:04.459Z,18.35
2023-04-16T00:51:07.457Z,19.70
2023-04-16T00:54:08.880Z,19.48
2023-04-16T00:57:10.344Z,20.02
2023-04-16T01:00:12.663Z,20.33
2023-04-16T01:03:14.649Z,19.70
2023-04-16T01:06:19.413Z,20.27
2023-04-16T01:09:20.856Z,19.05
2023-04-16T01:12:22.382Z,19.83
2023-04-16T01:15:23.874Z,19.70
2023-04-16T01:18:26.173Z,19.05
2023-04-16T01:21:27.616Z,20.10
2023-04-16T01:24:29.091Z,21.38
2023-04-16T01:27:30.608Z,19.35
2023-04-16T01:30:32.028Z,18.85
2023-04-16T01:33:42.614Z,19.27
2023-04-16T01:36:46.373Z,19.88
2023-04-16T01:39:47.814Z,18.60
2023-04-16T01:42:49.274Z,19.40
2023-04-16T01:45:51.881Z,20.27
2023-04-16T01:48:54.166Z,20.33
2023-04-16T01:51:55.665Z,19.73
2023-04-16T01:54:57.192Z,19.63
2023-04-16T01:57:58.625Z,20.42
2023-04-16T02:01:02.876Z,18.50
2023-04-16T02:04:04.568Z,19.58
2023-04-16T02:07:06.724Z,18.17
2023-04-16T02:10:08.641Z,18.95
2023-04-16T02:13:10.145Z,20.60
2023-04-16T02:16:12.063Z,19.63
2023-04-16T02:19:24.648Z,20.27
2023-04-16T02:22:26.122Z,21.50
2023-04-16T02:25:27.564Z,19.70
2023-04-16T02:28:31.025Z,21.13
2023-04-16T02:31:32.905Z,21.40
2023-04-16T02:34:34.527Z,20.67
2023-04-16T02:37:36.058Z,20.58
2023-04-16T02:40:37.517Z,20.70
2023-04-16T02:43:38.946Z,19.05
2023-04-16T02:46:40.367Z,20.65
2023-04-16T02:49:41.891Z,21.75
2023-04-16T02:52:43.368Z,20.45
2023-04-16T02:55:55.256Z,19.60
2023-04-16T02:58:56.727Z,20.02
2023-04-16T03:01:58.554Z,20.25
2023-04-16T03:05:00.167Z,18.08
2023-04-16T03:08:01.689Z,20.15
2023-04-16T03:11:03.100Z,18.70
2023-04-16T03:14:04.552Z,18.58
2023-04-16T03:17:05.969Z,19.38
2023-04-16T03:20:08.472Z,19.23
2023-04-16T03:23:09.935Z,18.98
2023-04-16T03:26:11.353Z,19.73
2023-04-16T03:29:12.855Z,19.20
2023-04-16T03:32:14.302Z,18.58
2023-04-16T03:35:15.906Z,18.83
2023-04-16T03:38:17.524Z,18.52
2023-04-16T03:41:19.601Z,20.00
2023-04-16T03:44:21.306Z,19.65
2023-04-16T03:47:22.818Z,19.20
2023-04-16T03:50:27.756Z,20.58
2023-04-16T03:53:29.560Z,19.60
2023-04-16T03:56:31.016Z,18.67
2023-04-16T03:59:32.549Z,18.80
2023-04-16T04:02:34.227Z,20.38
2023-04-16T04:05:37.532Z,18.83
2023-04-16T04:08:39.158Z,18.83
2023-04-16T04:11:42.281Z,20.10
2023-04-16T04:14:43.916Z,17.37
2023-04-16T04:17:45.415Z,18.63
2023-04-16T04:20:47.437Z,19.10
2023-04-16T04:23:51.152Z,19.55
2023-04-16T04:26:52.631Z,19.25
2023-04-16T04:29:54.469Z,19.20
2023-04-16T04:32:57.079Z,20.17
2023-04-16T04:35:58.539Z,20.02
2023-04-16T04:39:00.546Z,19.05
2023-04-16T04:42:02.907Z,17.75
2023-04-16T04:45:05.314Z,18.48
2023-04-16T04:48:08.672Z,18.75
2023-04-16T04:51:10.182Z,18.48
2023-04-16T04:54:11.650Z,18.00
2023-04-16T04:57:13.145Z,18.70
2023-04-16T05:00:16.260Z,19.63
2023-04-16T05:03:28.431Z,19.30
2023-04-16T05:06:30.169Z,18.85
2023-04-16T05:09:31.602Z,18.70
2023-04-16T05:12:33.019Z,18.13
2023-04-16T05:15:34.462Z,18.02
2023-04-16T05:18:35.966Z,18.50
2023-04-16T05:21:37.386Z,18.17
2023-04-16T05:24:38.829Z,18.60
2023-04-16T05:27:40.709Z,17.08
2023-04-16T05:30:42.134Z,18.65
2023-04-16T05:33:43.603Z,19.35
2023-04-16T05:36:45.102Z,18.70
2023-04-16T05:39:47.370Z,18.90
2023-04-16T05:42:48.794Z,18.77
2023-04-16T05:45:50.396Z,19.65
2023-04-16T05:48:52.044Z,18.73
2023-04-16T05:51:53.461Z,19.42
2023-04-16T05:54:54.855Z,19.02
2023-04-16T05:57:56.264Z,17.70
2023-04-16T06:00:57.738Z,17.95
2023-04-16T06:03:59.218Z,21.13
2023-04-16T06:07:00.678Z,18.23
2023-04-16T06:10:02.118Z,19.58
2023-04-16T06:13:03.571Z,18.15
2023-04-16T06:16:05.543Z,20.00
2023-04-16T06:19:07.845Z,21.27
2023-04-16T06:22:09.823Z,19.92
2023-04-16T06:25:11.235Z,17.25
2023-04-16T06:28:12.666Z,18.05
2023-04-16T06:31:14.292Z,17.58
2023-04-16T06:34:15.826Z,18.15
2023-04-16T06:37:17.253Z,18.75
2023-04-16T06:40:18.622Z,18.50
2023-04-16T06:43:20.077Z,17.35
2023-04-16T06:46:21.477Z,18.20
2023-04-16T06:49:22.916Z,18.83
2023-04-16T06:52:24.387Z,17.55
2023-04-16T06:55:25.861Z,17.15
2023-04-16T06:58:27.256Z,17.48
2023-04-16T07:01:28.819Z,17.17
2023-04-16T07:04:30.279Z,16.73
2023-04-16T07:07:32.568Z,18.33
2023-04-16T07:10:34.342Z,17.98
2023-04-16T07:13:35.725Z,17.70
2023-04-16T07:16:37.174Z,16.70
2023-04-16T07:19:38.573Z,16.85
2023-04-16T07:22:39.993Z,18.65
2023-04-16T07:25:41.365Z,17.38
2023-04-16T07:28:42.781Z,17.30
2023-04-16T07:31:45.278Z,19.05
2023-04-16T07:34:46.697Z,21.77
2023-04-16T07:37:48.065Z,17.00
2023-04-16T07:40:49.516Z,17.02
2023-04-16T07:43:50.883Z,16.38
2023-04-16T07:46:52.398Z,20.02
2023-04-16T07:49:53.951Z,16.88
2023-04-16T07:52:55.409Z,19.45
2023-04-16T07:55:56.870Z,20.35
2023-04-16T07:59:02.899Z,17.17
2023-04-16T08:02:14.181Z,20.92
2023-04-16T08:05:15.809Z,21.02
2023-04-16T08:08:17.222Z,19.52
2023-04-16T08:11:18.616Z,19.30
2023-04-16T08:14:20.232Z,16.70
2023-04-16T08:17:21.647Z,16.65
2023-04-16T08:20:23.104Z,18.63
2023-04-16T08:23:24.861Z,20.55
2023-04-16T08:26:26.246Z,16.88
2023-04-16T08:29:27.679Z,38.55
2023-04-16T08:32:29.167Z,19.77
2023-04-16T08:35:30.701Z,17.58
2023-04-16T08:38:32.086Z,32.63
2023-04-16T08:41:36.748Z,20.60
2023-04-16T08:44:45.979Z,24.30
2023-04-16T08:47:50.475Z,18.20
2023-04-16T08:50:52.949Z,17.13
2023-04-16T08:54:03.811Z,16.63
2023-04-16T08:57:07.002Z,29.40
2023-04-16T09:00:09.423Z,18.00
2023-04-16T09:03:11.174Z,24.17
2023-04-16T09:06:13.278Z,45.03
2023-04-16T09:09:16.145Z,17.77
2023-04-16T09:12:18.088Z,32.47
2023-04-16T09:15:21.092Z,36.22
2023-04-16T09:18:23.117Z,18.10
2023-04-16T09:21:25.834Z,14.25
2023-04-16T09:24:28.824Z,26.85
2023-04-16T09:27:30.848Z,17.02
2023-04-16T09:30:32.249Z,16.98
2023-04-16T09:33:34.992Z,16.75
2023-04-16T09:36:36.984Z,18.25
2023-04-16T09:39:38.389Z,15.43
2023-04-16T09:42:39.799Z,19.63
2023-04-16T09:45:55.225Z,21.10
2023-04-16T09:48:56.739Z,14.20
2023-04-16T09:51:58.146Z,14.45
2023-04-16T09:54:59.947Z,14.68
2023-04-16T09:58:02.156Z,18.42
2023-04-16T10:01:06.786Z,13.38
2023-04-16T10:04:08.444Z,13.30
2023-04-16T10:07:09.874Z,15.45
2023-04-16T10:10:11.529Z,14.25
2023-04-16T10:13:12.997Z,14.07
2023-04-16T10:16:14.507Z,15.85
2023-04-16T10:19:16.862Z,15.15
2023-04-16T10:22:18.289Z,15.18
2023-04-16T10:25:20.144Z,14.88
2023-04-16T10:28:22.450Z,13.30
2023-04-16T10:31:25.575Z,13.50
2023-04-16T10:34:27.881Z,13.40
2023-04-16T10:37:30.439Z,13.80
2023-04-16T10:40:31.888Z,13.83
2023-04-16T10:43:39.626Z,14.20
2023-04-16T10:46:46.976Z,13.90
2023-04-16T10:49:48.349Z,13.70
2023-04-16T10:53:09.788Z,13.45
2023-04-16T10:56:11.575Z,13.07
2023-04-16T10:59:13.613Z,14.35
2023-04-16T11:02:19.405Z,13.70
2023-04-16T11:05:24.566Z,13.10
2023-04-16T11:08:26.419Z,28.00
2023-04-16T11:11:37.309Z,33.05
2023-04-16T11:14:40.431Z,26.35
2023-04-16T11:17:45.797Z,32.85
2023-04-16T11:20:47.305Z,25.63
2023-04-16T11:23:53.441Z,14.32
2023-04-16T11:26:55.456Z,15.48
2023-04-16T11:30:00.934Z,15.60
2023-04-16T11:33:10.106Z,13.88
2023-04-16T11:36:11.582Z,13.43
2023-04-16T11:39:13.133Z,13.88
2023-04-16T11:42:22.649Z,14.13
2023-04-16T11:45:24.327Z,12.68
2023-04-16T11:48:26.275Z,13.38
2023-04-16T11:51:27.698Z,13.13
2023-04-16T11:54:29.108Z,12.63
2023-04-16T11:57:31.935Z,12.70
2023-04-16T12:00:35.194Z,14.27
2023-04-16T12:07:13.095Z,13.18
2023-04-16T12:10:14.637Z,13.80
2023-04-16T12:13:17.319Z,12.85
2023-04-16T12:16:19.382Z,13.27
2023-04-16T12:19:21.672Z,13.50
2023-04-16T12:22:35.324Z,14.13
2023-04-16T12:25:38.250Z,13.15
2023-04-16T12:28:39.635Z,14.95
2023-04-16T12:31:41.054Z,14.00
2023-04-16T12:34:51.670Z,14.27
2023-04-16T12:37:53.049Z,13.52
2023-04-16T12:40:54.556Z,14.48
2023-04-16T12:44:07.734Z,13.35
2023-04-16T12:47:09.203Z,13.23
2023-04-16T12:50:10.810Z,13.40
2023-04-16T12:53:12.376Z,13.57
2023-04-16T12:56:13.833Z,13.90
2023-04-16T12:59:15.263Z,13.00
2023-04-16T13:02:16.807Z,13.93
2023-04-16T13:05:18.479Z,13.95
2023-04-16T13:08:20.251Z,14.00
2023-04-16T13:11:21.676Z,13.60
2023-04-16T13:14:23.113Z,13.00
2023-04-16T13:17:24.657Z,13.23
2023-04-16T13:20:26.152Z,12.98
2023-04-16T13:23:27.617Z,13.10
2023-04-16T13:26:29.075Z,13.68
2023-04-16T13:29:30.509Z,13.65
2023-04-16T13:32:32.023Z,13.57
2023-04-16T13:35:33.519Z,13.00
2023-04-16T13:38:34.969Z,12.68
2023-04-16T13:41:40.316Z,12.38
2023-04-16T13:44:41.738Z,12.75
2023-04-16T13:47:43.658Z,12.80
2023-04-16T13:50:45.149Z,13.23
2023-04-16T13:53:46.595Z,13.38
2023-04-16T13:56:50.082Z,13.43
2023-04-16T13:59:51.645Z,12.32
2023-04-16T14:02:53.387Z,13.45
2023-04-16T14:05:54.975Z,13.90
2023-04-16T14:08:56.413Z,14.07
2023-04-16T14:11:57.834Z,13.75
2023-04-16T14:14:59.309Z,13.13
2023-04-16T14:18:00.887Z,13.20
2023-04-16T14:21:02.360Z,13.10
2023-04-16T14:24:04.043Z,12.75
2023-04-16T14:27:05.457Z,12.77
2023-04-16T14:30:07.539Z,12.95
2023-04-16T14:33:08.947Z,12.65
2023-04-16T14:36:10.381Z,12.25
2023-04-16T14:39:12.044Z,12.30
2023-04-16T14:42:13.660Z,13.13
2023-04-16T14:45:15.107Z,12.55
2023-04-16T14:48:16.571Z,13.32
2023-04-16T14:51:18.118Z,13.73
2023-04-16T14:54:20.016Z,13.57
2023-04-16T14:57:21.892Z,13.88
2023-04-16T15:00:23.531Z,12.95
2023-04-16T15:03:25.184Z,13.82
2023-04-16T15:06:26.752Z,14.43
2023-04-16T15:09:29.367Z,13.70
2023-04-16T15:12:30.791Z,13.88
2023-04-16T15:15:32.241Z,13.73
2023-04-16T15:18:33.671Z,13.82
2023-04-16T15:21:35.105Z,13.70
2023-04-16T15:24:36.498Z,13.40
2023-04-16T15:27:37.943Z,13.10
2023-04-16T15:30:40.306Z,14.70
2023-04-16T15:33:41.761Z,13.77
2023-04-16T15:36:43.136Z,14.05
2023-04-16T15:39:44.566Z,14.35
2023-04-16T15:42:45.981Z,14.07
2023-04-16T15:45:47.371Z,14.05
2023-04-16T15:48:48.810Z,14.40
2023-04-16T15:51:50.915Z,15.18
2023-04-16T15:54:52.388Z,14.55
2023-04-16T15:57:53.852Z,14.32
2023-04-16T16:00:55.289Z,14.23
2023-04-16T16:03:56.909Z,14.02
2023-04-16T16:06:58.470Z,15.23
2023-04-16T16:09:59.893Z,14.63
2023-04-16T16:13:01.333Z,14.57
2023-04-16T16:16:03.608Z,14.73
2023-04-16T16:19:05.086Z,14.05
2023-04-16T16:22:06.494Z,13.73
2023-04-16T16:25:08.236Z,14.82
2023-04-16T16:28:09.663Z,14.25
2023-04-16T16:31:11.115Z,14.82
2023-04-16T16:34:20.083Z,14.75
2023-04-16T16:37:22.444Z,15.73
2023-04-16T16:40:23.969Z,17.58
2023-04-16T16:43:25.394Z,15.70
2023-04-16T16:46:26.816Z,17.85
2023-04-16T16:49:28.270Z,16.13
2023-04-16T16:52:29.736Z,16.52
2023-04-16T16:55:31.281Z,15.38
2023-04-16T16:58:32.751Z,18.33
2023-04-16T17:01:34.539Z,17.10
2023-04-16T17:04:36.343Z,16.40
2023-04-16T17:07:38.275Z,17.33
2023-04-16T17:10:39.857Z,15.88
2023-04-16T17:13:41.334Z,15.80
2023-04-16T17:16:42.801Z,16.48
2023-04-16T17:19:44.342Z,16.80
2023-04-16T17:22:45.789Z,15.35
2023-04-16T17:25:47.252Z,15.40
2023-04-16T17:28:48.667Z,15.50
2023-04-16T17:31:50.115Z,14.95
2023-04-16T17:34:51.787Z,15.07
2023-04-16T17:37:53.182Z,16.50
2023-04-16T17:40:54.541Z,15.35
2023-04-16T17:43:55.954Z,15.27
2023-04-16T17:46:57.340Z,14.95
2023-04-16T17:49:58.761Z,15.25
2023-04-16T17:53:00.135Z,16.38
2023-04-16T17:56:02.272Z,14.77
2023-04-16T17:59:03.932Z,16.38
2023-04-16T18:02:05.530Z,15.57
2023-04-16T18:05:07.986Z,15.93
2023-04-16T18:08:09.395Z,15.70
2023-04-16T18:11:10.842Z,16.85
2023-04-16T18:14:12.444Z,15.90
2023-04-16T18:17:14.033Z,16.27
2023-04-16T18:20:16.131Z,15.88
2023-04-16T18:23:17.599Z,15.60
2023-04-16T18:26:22.493Z,16.70
2023-04-16T18:29:25.618Z,17.38
2023-04-16T18:32:30.766Z,16.70
2023-04-16T18:35:32.767Z,18.30
2023-04-16T18:38:34.182Z,17.33
2023-04-16T18:41:35.592Z,18.00
2023-04-16T18:44:37.581Z,17.55
2023-04-16T18:47:39.007Z,17.95
2023-04-16T18:50:40.403Z,17.92
2023-04-16T18:53:41.790Z,17.58
2023-04-16T18:56:43.183Z,16.83
2023-04-16T18:59:44.639Z,27.55
2023-04-16T19:02:46.157Z,17.88
2023-04-16T19:05:47.731Z,16.45
2023-04-16T19:08:49.173Z,16.48
2023-04-16T19:11:50.742Z,17.05
2023-04-16T19:14:52.177Z,15.77
2023-04-16T19:17:53.599Z,16.90
2023-04-16T19:21:01.645Z,16.80
2023-04-16T19:24:03.178Z,16.55
2023-04-16T19:27:04.631Z,18.00
2023-04-16T19:30:06.742Z,17.85
2023-04-16T19:33:08.217Z,17.02
2023-04-16T19:36:09.654Z,16.23
2023-04-16T19:39:11.403Z,17.13
2023-04-16T19:42:12.978Z,19.00
2023-04-16T19:45:14.485Z,19.38
2023-04-16T19:48:15.898Z,18.00
2023-04-16T19:51:17.347Z,17.27
2023-04-16T19:54:18.754Z,17.52
2023-04-16T19:57:20.185Z,18.67
2023-04-16T20:00:21.649Z,17.83
2023-04-16T20:03:23.181Z,18.38
2023-04-16T20:06:24.658Z,18.85
2023-04-16T20:09:26.185Z,17.83
2023-04-16T20:12:27.636Z,18.65
2023-04-16T20:15:29.035Z,18.42
2023-04-16T20:18:31.464Z,18.63
2023-04-16T20:21:32.860Z,18.80
2023-04-16T20:24:34.378Z,19.05
2023-04-16T20:27:35.919Z,19.73
2023-04-16T20:30:37.869Z,21.45
2023-04-16T20:33:39.302Z,17.67
2023-04-16T20:36:41.091Z,18.80
2023-04-16T20:39:42.584Z,17.63
2023-04-16T20:42:44.041Z,17.50
2023-04-16T20:45:45.487Z,17.30
2023-04-16T20:48:46.905Z,17.48
2023-04-16T20:51:48.338Z,17.95
2023-04-16T20:54:49.755Z,17.23
2023-04-16T20:57:51.289Z,17.17
2023-04-16T21:00:53.325Z,16.80
2023-04-16T21:03:54.970Z,17.35
2023-04-16T21:06:56.602Z,17.08
2023-04-16T21:09:58.260Z,17.60
2023-04-16T21:12:59.654Z,17.63
2023-04-16T21:16:01.141Z,17.98
2023-04-16T21:19:02.672Z,18.63
2023-04-16T21:22:04.094Z,18.20
2023-04-16T21:25:06.087Z,18.02
2023-04-16T21:28:07.464Z,17.75
2023-04-16T21:31:09.316Z,17.45
2023-04-16T21:34:10.715Z,18.27
2023-04-16T21:37:12.137Z,19.17
2023-04-16T21:40:13.726Z,18.00
2023-04-16T21:43:15.090Z,18.80
2023-04-16T21:46:16.512Z,18.80
2023-04-16T21:49:18.018Z,18.33
2023-04-16T21:52:19.441Z,17.95
2023-04-16T21:55:21.027Z,18.17
2023-04-16T21:58:22.477Z,19.17
2023-04-16T22:01:23.941Z,19.10
2023-04-16T22:04:25.423Z,20.67
2023-04-16T22:07:26.800Z,19.75
2023-04-16T22:10:28.213Z,18.88
2023-04-16T22:13:30.483Z,19.00
2023-04-16T22:16:31.908Z,20.45
2023-04-16T22:19:33.337Z,19.55
2023-04-16T22:22:35.099Z,19.10
2023-04-16T22:25:36.497Z,18.15
2023-04-16T22:28:37.863Z,19.50
2023-04-16T22:31:39.357Z,20.58
2023-04-16T22:34:41.596Z,18.45
2023-04-16T22:37:43.022Z,18.63
2023-04-16T22:40:47.351Z,19.45
2023-04-16T22:43:50.081Z,20.98
2023-04-16T22:46:53.305Z,19.75
2023-04-16T22:49:54.686Z,20.42
2023-04-16T22:52:56.088Z,19.80
2023-04-16T22:55:57.485Z,20.88
2023-04-16T22:58:58.904Z,20.67
2023-04-16T23:02:00.322Z,19.88
2023-04-16T23:05:01.780Z,19.67
2023-04-16T23:08:03.269Z,19.77
2023-04-16T23:11:04.875Z,22.33
2023-04-16T23:14:06.252Z,20.98
2023-04-16T23:17:07.682Z,19.92
2023-04-16T23:20:09.571Z,20.17
2023-04-16T23:23:10.986Z,21.13
2023-04-16T23:26:12.462Z,18.75
2023-04-16T23:29:13.871Z,19.33
2023-04-16T23:32:15.332Z,21.48
2023-04-16T23:35:16.881Z,21.23
2023-04-16T23:38:18.296Z,22.83
2023-04-16T23:41:19.752Z,21.83
2023-04-16T23:44:21.136Z,21.33
2023-04-16T23:47:22.616Z,21.77
2023-04-16T23:50:24.076Z,21.05
2023-04-16T23:53:25.506Z,21.63
2023-04-16T23:56:26.955Z,21.95
2023-04-16T23:59:28.368Z,21.00
